< < Back
Terminal Aerodrome Forecast


Current Version              Previous Versions:   1  2  3  4  5  6  7  8  9  

Terminal Aerodrome Forecast

422
FTUS44 KBMX 282335
TAFTCL
TAF
KTCL 282335Z 2900/2924 10005KT P6SM SCT015 BKN025
     FM290900 00000KT 5SM BR BKN010
     FM291500 16004KT P6SM BKN250
     FM291700 16005KT P6SM VCTS BKN050CB
     FM291900 14007KT 4SM SHRA VCTS BKN025CB OVC050=

Latest METAR

144
SAUS70 KWBC 290558
MTRTCL
METAR KTCL 290553Z 14004KT 10SM BKN010 21/19 A3009 RMK AO2 CIG 009V014
SLP189 T02060189 10261 20206 402670194 56014


USA.gov is the U.S. government's official web portal to all federal, state and local government web resources and services.